createdAt,value
2023-03-03T00:00:03.872Z,2.08
2023-03-03T00:02:30.353Z,2.13
2023-03-03T00:04:56.761Z,3.15
2023-03-03T00:07:23.383Z,2.47
2023-03-03T00:09:50.051Z,4.80
2023-03-03T00:12:27.015Z,3.08
2023-03-03T00:14:53.545Z,4.25
2023-03-03T00:17:26.765Z,4.97
2023-03-03T00:19:54.814Z,2.47
2023-03-03T00:22:31.830Z,3.60
2023-03-03T00:25:21.110Z,3.85
2023-03-03T00:27:47.533Z,3.10
2023-03-03T00:30:23.168Z,3.65
2023-03-03T00:32:50.790Z,6.97
2023-03-03T00:35:23.271Z,6.30
2023-03-03T00:37:52.160Z,3.83
2023-03-03T00:40:18.595Z,4.25
2023-03-03T00:42:47.480Z,5.30
2023-03-03T00:45:22.368Z,3.42
2023-03-03T00:47:48.785Z,4.70
2023-03-03T00:50:25.118Z,3.20
2023-03-03T00:52:57.966Z,3.38
2023-03-03T00:55:24.495Z,4.35
2023-03-03T00:57:50.892Z,3.35
2023-03-03T01:00:17.629Z,3.50
2023-03-03T01:02:46.262Z,2.92
2023-03-03T01:05:17.292Z,4.60
2023-03-03T01:07:43.654Z,3.05
2023-03-03T01:10:10.626Z,3.22
2023-03-03T01:12:38.743Z,4.95
2023-03-03T01:15:09.322Z,3.95
2023-03-03T01:17:36.038Z,3.95
2023-03-03T01:20:03.969Z,1.75
2023-03-03T01:22:30.379Z,1.92
2023-03-03T01:24:58.001Z,3.95
2023-03-03T01:27:25.752Z,4.88
2023-03-03T01:29:52.252Z,2.00
2023-03-03T01:32:18.776Z,2.47
2023-03-03T01:34:45.317Z,1.75
2023-03-03T01:37:11.725Z,5.22
2023-03-03T01:39:38.130Z,8.13
2023-03-03T01:42:04.912Z,21.88
2023-03-03T01:44:31.405Z,13.38
2023-03-03T01:47:05.684Z,9.55
2023-03-03T01:49:40.776Z,8.07
2023-03-03T01:52:12.315Z,36.13
2023-03-03T01:54:41.595Z,9.10
2023-03-03T01:57:16.540Z,41.40
2023-03-03T01:59:46.392Z,30.10
2023-03-03T02:02:13.075Z,15.43
2023-03-03T02:04:39.517Z,24.30
2023-03-03T02:07:09.934Z,15.50
2023-03-03T02:09:36.297Z,22.25
2023-03-03T02:12:06.759Z,28.08
2023-03-03T02:14:33.155Z,31.63
2023-03-03T02:16:59.860Z,29.38
2023-03-03T02:19:32.324Z,14.30
2023-03-03T02:22:01.665Z,30.55
2023-03-03T02:24:33.450Z,19.95
2023-03-03T02:27:00.140Z,28.40
2023-03-03T02:29:26.557Z,14.43
2023-03-03T02:31:53.204Z,21.38
2023-03-03T02:34:19.726Z,23.08
2023-03-03T02:36:46.190Z,10.13
2023-03-03T02:39:25.143Z,51.35
2023-03-03T02:41:51.935Z,16.88
2023-03-03T02:44:19.770Z,9.85
2023-03-03T02:46:47.410Z,29.08
2023-03-03T02:49:15.832Z,11.05
2023-03-03T02:51:42.322Z,17.42
2023-03-03T02:54:09.664Z,11.30
2023-03-03T02:56:36.312Z,35.10
2023-03-03T02:59:03.116Z,30.73
2023-03-03T03:01:32.098Z,29.45
2023-03-03T03:03:58.927Z,22.77
2023-03-03T03:06:25.491Z,29.50
2023-03-03T03:08:51.928Z,46.28
2023-03-03T03:11:18.465Z,42.60
2023-03-03T03:13:45.062Z,26.80
2023-03-03T03:16:11.554Z,23.27
2023-03-03T03:18:38.035Z,54.42
2023-03-03T03:21:08.754Z,38.50
2023-03-03T03:23:35.548Z,58.30
2023-03-03T03:26:02.229Z,81.32
2023-03-03T03:28:28.760Z,107.57
2023-03-03T03:30:55.597Z,54.38
2023-03-03T03:33:22.267Z,54.22
2023-03-03T03:35:48.860Z,69.65
2023-03-03T03:38:15.397Z,32.35
2023-03-03T03:40:41.960Z,53.25
2023-03-03T03:43:08.492Z,70.30
2023-03-03T03:45:34.902Z,61.47
2023-03-03T03:48:03.658Z,35.28
2023-03-03T03:50:30.714Z,51.78
2023-03-03T03:52:57.130Z,40.65
2023-03-03T03:55:23.575Z,63.25
2023-03-03T03:57:50.337Z,21.95
2023-03-03T04:00:17.482Z,43.67
2023-03-03T04:02:44.061Z,43.80
2023-03-03T04:05:10.738Z,31.92
2023-03-03T04:07:37.329Z,23.80
2023-03-03T04:10:04.182Z,50.20
2023-03-03T04:12:35.928Z,24.02
2023-03-03T04:15:02.407Z,16.75
2023-03-03T04:17:28.801Z,12.15
2023-03-03T04:19:55.300Z,29.48
2023-03-03T04:22:21.720Z,22.67
2023-03-03T04:24:48.699Z,18.48
2023-03-03T04:27:15.557Z,16.45
2023-03-03T04:29:42.394Z,19.23
2023-03-03T04:32:08.797Z,20.63
2023-03-03T04:34:35.323Z,13.23
2023-03-03T04:37:01.956Z,22.35
2023-03-03T04:39:28.668Z,21.15
2023-03-03T04:41:55.111Z,19.90
2023-03-03T04:44:22.408Z,24.92
2023-03-03T04:46:48.861Z,38.53
2023-03-03T04:49:15.399Z,26.42
2023-03-03T04:51:41.783Z,40.97
2023-03-03T04:54:08.179Z,24.70
2023-03-03T04:56:34.608Z,21.08
2023-03-03T04:59:01.072Z,30.45
2023-03-03T05:01:27.728Z,34.03
2023-03-03T05:03:56.166Z,14.23
2023-03-03T05:06:22.656Z,32.58
2023-03-03T05:08:49.107Z,34.05
2023-03-03T05:11:15.512Z,21.33
2023-03-03T05:13:42.008Z,33.42
2023-03-03T05:16:09.036Z,24.38
2023-03-03T05:18:35.466Z,29.48
2023-03-03T05:21:01.871Z,76.18
2023-03-03T05:23:28.350Z,27.23
2023-03-03T05:25:54.786Z,19.98
2023-03-03T05:28:21.288Z,17.38
2023-03-03T05:30:47.807Z,5.95
2023-03-03T05:33:14.844Z,5.13
2023-03-03T05:35:41.351Z,5.60
2023-03-03T05:38:07.966Z,10.20
2023-03-03T05:40:34.376Z,7.88
2023-03-03T05:43:00.934Z,24.58
2023-03-03T05:45:27.482Z,10.25
2023-03-03T05:47:53.915Z,16.25
2023-03-03T05:50:21.236Z,10.85
2023-03-03T05:52:48.353Z,41.28
2023-03-03T05:55:14.795Z,73.78
2023-03-03T05:57:41.238Z,45.72
2023-03-03T06:00:08.580Z,39.13
2023-03-03T06:02:37.882Z,31.65
2023-03-03T06:05:04.484Z,71.47
2023-03-03T06:07:30.898Z,52.90
2023-03-03T06:09:57.281Z,44.60
2023-03-03T06:12:23.684Z,49.90
2023-03-03T06:14:50.125Z,16.77
2023-03-03T06:17:16.558Z,17.10
2023-03-03T06:19:43.003Z,13.57
2023-03-03T06:22:09.619Z,16.25
2023-03-03T06:24:36.132Z,26.15
2023-03-03T06:27:02.561Z,32.20
2023-03-03T06:29:29.096Z,12.77
2023-03-03T06:31:55.903Z,5.05
2023-03-03T06:34:22.375Z,5.68
2023-03-03T06:36:48.830Z,3.47
2023-03-03T06:39:15.295Z,10.40
2023-03-03T06:41:41.723Z,44.38
2023-03-03T06:44:08.164Z,37.63
2023-03-03T06:46:34.622Z,16.55
2023-03-03T06:49:01.139Z,47.35
2023-03-03T06:51:39.741Z,22.73
2023-03-03T06:54:13.945Z,24.88
2023-03-03T06:56:40.552Z,35.28
2023-03-03T06:59:14.778Z,15.93
2023-03-03T07:01:41.913Z,10.05
2023-03-03T07:04:33.409Z,5.90
2023-03-03T07:07:11.115Z,5.00
2023-03-03T07:09:37.550Z,6.93
2023-03-03T07:12:10.714Z,5.53
2023-03-03T07:14:44.724Z,4.93
2023-03-03T07:17:20.311Z,4.50
2023-03-03T07:19:47.367Z,3.42
2023-03-03T07:22:13.766Z,2.63
2023-03-03T07:24:41.233Z,3.33
2023-03-03T07:27:24.157Z,2.72
2023-03-03T07:29:51.865Z,5.38
2023-03-03T07:32:36.847Z,3.70
2023-03-03T07:35:07.785Z,3.45
2023-03-03T07:37:38.878Z,3.20
2023-03-03T07:40:27.622Z,5.55
2023-03-03T07:42:54.144Z,3.35
2023-03-03T07:45:24.472Z,2.67
2023-03-03T07:47:50.846Z,3.65
2023-03-03T07:50:22.344Z,3.15
2023-03-03T07:52:56.937Z,3.63
2023-03-03T07:55:23.441Z,3.95
2023-03-03T07:57:51.140Z,4.10
2023-03-03T08:00:17.583Z,3.22
2023-03-03T08:02:46.820Z,4.20
2023-03-03T08:05:19.517Z,3.30
2023-03-03T08:07:46.147Z,3.33
2023-03-03T08:10:32.135Z,3.85
2023-03-03T08:13:01.192Z,5.88
2023-03-03T08:15:36.676Z,4.03
2023-03-03T08:18:11.841Z,4.70
2023-03-03T08:20:42.442Z,3.92
2023-03-03T08:23:08.833Z,3.38
2023-03-03T08:25:35.323Z,3.42
2023-03-03T08:28:01.972Z,3.75
2023-03-03T08:30:28.424Z,4.00
2023-03-03T08:32:57.820Z,2.63
2023-03-03T08:35:24.312Z,2.95
2023-03-03T08:37:51.273Z,3.33
2023-03-03T08:40:17.709Z,4.82
2023-03-03T08:42:44.136Z,4.03
2023-03-03T08:45:10.537Z,3.83
2023-03-03T08:47:37.023Z,4.75
2023-03-03T08:50:03.506Z,4.18
2023-03-03T08:52:29.921Z,5.43
2023-03-03T08:54:56.479Z,2.70
2023-03-03T08:57:22.913Z,2.40
2023-03-03T08:59:49.351Z,4.60
2023-03-03T09:02:17.132Z,4.10
2023-03-03T09:04:43.630Z,3.03
2023-03-03T09:07:10.839Z,4.93
2023-03-03T09:09:40.164Z,4.18
2023-03-03T09:12:13.344Z,3.15
2023-03-03T09:14:39.750Z,3.30
2023-03-03T09:17:18.778Z,3.10
2023-03-03T09:19:45.435Z,3.95
2023-03-03T09:22:18.896Z,3.88
2023-03-03T09:24:47.227Z,4.07
2023-03-03T09:27:20.179Z,3.25
2023-03-03T09:29:46.579Z,3.28
2023-03-03T09:32:27.247Z,4.57
2023-03-03T09:34:53.695Z,4.75
2023-03-03T09:37:24.427Z,3.47
2023-03-03T09:39:52.130Z,4.70
2023-03-03T09:42:36.912Z,4.70
2023-03-03T09:45:12.993Z,2.17
2023-03-03T09:47:47.289Z,4.97
2023-03-03T09:50:26.353Z,5.32
2023-03-03T09:53:01.589Z,3.22
2023-03-03T09:55:35.929Z,2.35
2023-03-03T09:58:18.614Z,2.88
2023-03-03T10:00:45.039Z,2.63
2023-03-03T10:03:14.519Z,2.75
2023-03-03T10:05:59.233Z,4.13
2023-03-03T10:08:31.227Z,4.53
2023-03-03T10:10:58.059Z,4.15
2023-03-03T10:13:42.149Z,2.90
2023-03-03T10:16:20.522Z,5.53
2023-03-03T10:18:52.113Z,5.10
2023-03-03T10:21:37.385Z,2.95
2023-03-03T10:24:09.715Z,3.15
2023-03-03T10:27:01.273Z,3.40
2023-03-03T10:29:44.742Z,6.53
2023-03-03T10:32:23.607Z,4.38
2023-03-03T10:34:53.227Z,4.30
2023-03-03T10:37:38.586Z,5.20
2023-03-03T10:40:19.400Z,3.05
2023-03-03T10:42:54.994Z,6.10
2023-03-03T10:45:40.147Z,2.25
2023-03-03T10:48:18.498Z,2.53
2023-03-03T10:50:57.943Z,4.07
2023-03-03T10:53:59.842Z,3.95
2023-03-03T10:56:50.433Z,5.55
2023-03-03T10:59:36.906Z,4.95
2023-03-03T11:02:23.725Z,4.22
2023-03-03T11:05:10.372Z,4.18
2023-03-03T11:07:46.335Z,6.28
2023-03-03T11:10:24.962Z,4.68
2023-03-03T11:13:15.396Z,7.22
2023-03-03T11:15:51.060Z,3.50
2023-03-03T11:18:25.747Z,3.58
2023-03-03T11:20:55.256Z,4.55
2023-03-03T11:23:31.254Z,8.05
2023-03-03T11:26:17.907Z,5.07
2023-03-03T11:29:02.640Z,5.85
2023-03-03T11:31:37.386Z,10.65
2023-03-03T11:34:06.693Z,3.92
2023-03-03T11:36:51.801Z,7.47
2023-03-03T11:39:20.566Z,5.25
2023-03-03T11:42:05.428Z,5.00
2023-03-03T11:44:45.481Z,6.95
2023-03-03T11:47:18.426Z,8.60
2023-03-03T11:50:04.781Z,38.13
2023-03-03T11:52:43.633Z,5.95
2023-03-03T11:55:12.971Z,3.35
2023-03-03T11:57:45.711Z,4.03
2023-03-03T12:00:18.209Z,6.03
2023-03-03T12:02:53.836Z,4.65
2023-03-03T12:05:38.902Z,2.75
2023-03-03T12:08:23.913Z,3.60
2023-03-03T12:10:56.512Z,5.68
2023-03-03T12:13:32.243Z,7.60
2023-03-03T12:16:01.762Z,3.78
2023-03-03T12:18:33.974Z,6.10
2023-03-03T12:21:22.414Z,3.20
2023-03-03T12:24:08.008Z,6.00
2023-03-03T12:26:49.466Z,7.47
2023-03-03T12:29:39.776Z,3.90
2023-03-03T12:32:08.913Z,3.75
2023-03-03T12:34:41.353Z,5.07
2023-03-03T12:37:07.791Z,7.18
2023-03-03T12:39:40.918Z,3.97
2023-03-03T12:42:07.659Z,5.60
2023-03-03T12:44:44.473Z,2.60
2023-03-03T12:47:25.073Z,5.60
2023-03-03T12:50:07.638Z,6.05
2023-03-03T12:52:46.538Z,4.43
2023-03-03T12:55:31.596Z,4.32
2023-03-03T12:58:05.990Z,5.07
2023-03-03T13:00:49.262Z,2.17
2023-03-03T13:03:15.716Z,4.22
2023-03-03T13:05:51.420Z,2.70
2023-03-03T13:08:31.150Z,6.25
2023-03-03T13:11:03.806Z,3.63
2023-03-03T13:13:49.752Z,3.83
2023-03-03T13:16:26.345Z,3.25
2023-03-03T13:18:55.547Z,5.72
2023-03-03T13:21:36.704Z,7.70
2023-03-03T13:24:12.156Z,1.92
2023-03-03T13:26:44.972Z,11.02
2023-03-03T13:29:16.274Z,3.75
2023-03-03T13:31:52.031Z,3.95
2023-03-03T13:34:23.164Z,5.00
2023-03-03T13:37:09.803Z,4.25
2023-03-03T13:39:39.762Z,1.83
2023-03-03T13:42:19.642Z,3.75
2023-03-03T13:44:47.081Z,3.20
2023-03-03T13:47:37.070Z,3.08
2023-03-03T13:50:03.691Z,8.50
2023-03-03T13:52:32.739Z,2.35
2023-03-03T13:55:08.718Z,11.75
2023-03-03T13:57:38.463Z,3.42
2023-03-03T14:00:08.083Z,1.73
2023-03-03T14:02:53.787Z,2.28
2023-03-03T14:05:20.172Z,2.80
2023-03-03T14:08:15.909Z,3.42
2023-03-03T14:10:54.368Z,2.88
2023-03-03T14:13:43.813Z,21.83
2023-03-03T14:16:23.304Z,10.32
2023-03-03T14:19:08.526Z,8.02
2023-03-03T14:21:43.525Z,0.82
2023-03-03T14:24:13.093Z,2.40
2023-03-03T14:26:46.873Z,7.45
2023-03-03T14:29:19.064Z,2.63
2023-03-03T14:31:45.661Z,1.35
2023-03-03T14:34:15.039Z,3.97
2023-03-03T14:36:42.690Z,3.72
2023-03-03T14:39:28.035Z,2.92
2023-03-03T14:41:57.362Z,2.22
2023-03-03T14:44:31.229Z,2.67
2023-03-03T14:47:03.057Z,3.85
2023-03-03T14:49:31.913Z,3.83
2023-03-03T14:52:03.536Z,2.33
2023-03-03T14:54:37.175Z,7.22
2023-03-03T14:57:07.314Z,5.22
2023-03-03T14:59:33.793Z,6.53
2023-03-03T15:02:08.975Z,5.53
2023-03-03T15:04:35.426Z,6.07
2023-03-03T15:07:14.302Z,3.00
2023-03-03T15:09:43.419Z,5.95
2023-03-03T15:12:28.787Z,2.00
2023-03-03T15:15:04.448Z,3.40
2023-03-03T15:17:37.975Z,3.22
2023-03-03T15:20:13.838Z,3.13
2023-03-03T15:22:49.524Z,5.18
2023-03-03T15:25:16.149Z,6.35
2023-03-03T15:27:47.586Z,3.72
2023-03-03T15:32:40.560Z,4.80
2023-03-03T15:35:27.635Z,3.90
2023-03-03T15:37:59.765Z,9.57
2023-03-03T15:40:28.016Z,5.45
2023-03-03T15:43:00.413Z,14.57
2023-03-03T15:45:33.821Z,6.38
2023-03-03T15:48:23.622Z,4.25
2023-03-03T15:51:08.840Z,4.72
2023-03-03T15:53:43.580Z,1.73
2023-03-03T15:56:26.220Z,3.80
2023-03-03T15:58:55.621Z,5.10
2023-03-03T16:01:27.453Z,4.95
2023-03-03T16:04:12.687Z,3.05
2023-03-03T16:06:58.336Z,7.82
2023-03-03T16:09:30.736Z,6.75
2023-03-03T16:12:09.616Z,6.43
2023-03-03T16:14:36.004Z,2.72
2023-03-03T16:17:20.464Z,2.88
2023-03-03T16:19:56.054Z,5.32
2023-03-03T16:22:34.782Z,6.68
2023-03-03T16:25:04.041Z,6.25
2023-03-03T16:27:30.561Z,4.05
2023-03-03T16:29:59.752Z,4.53
2023-03-03T16:32:36.333Z,4.25
2023-03-03T16:35:24.464Z,2.20
2023-03-03T16:38:02.761Z,4.22
2023-03-03T16:40:52.783Z,6.00
2023-03-03T16:43:24.967Z,3.13
2023-03-03T16:45:56.990Z,4.47
2023-03-03T16:48:35.341Z,1.50
2023-03-03T16:51:11.026Z,2.95
2023-03-03T16:54:03.912Z,3.80
2023-03-03T16:56:30.314Z,2.88
2023-03-03T16:59:08.887Z,7.50
2023-03-03T17:01:35.273Z,4.88
2023-03-03T17:04:03.128Z,2.30
2023-03-03T17:06:33.687Z,5.10
2023-03-03T17:09:02.904Z,5.25
2023-03-03T17:11:48.055Z,2.15
2023-03-03T17:14:14.480Z,4.85
2023-03-03T17:16:56.191Z,4.15
2023-03-03T17:19:22.692Z,4.95
2023-03-03T17:21:58.882Z,5.88
2023-03-03T17:24:31.084Z,5.13
2023-03-03T17:27:04.091Z,3.85
2023-03-03T17:29:33.613Z,3.13
2023-03-03T17:32:08.485Z,4.22
2023-03-03T17:34:41.247Z,3.42
2023-03-03T17:37:20.327Z,5.25
2023-03-03T17:40:03.673Z,2.33
2023-03-03T17:42:39.953Z,6.68
2023-03-03T17:45:08.325Z,5.93
2023-03-03T17:47:43.836Z,3.88
2023-03-03T17:50:25.563Z,2.08
2023-03-03T17:53:10.625Z,4.35
2023-03-03T17:55:43.117Z,2.50
2023-03-03T17:58:12.627Z,3.20
2023-03-03T18:00:45.016Z,2.15
2023-03-03T18:03:31.744Z,1.45
2023-03-03T18:06:04.234Z,2.92
2023-03-03T18:08:42.913Z,2.35
2023-03-03T18:11:20.269Z,5.68
2023-03-03T18:14:02.076Z,2.83
2023-03-03T18:16:40.646Z,2.47
2023-03-03T18:19:25.794Z,2.05
2023-03-03T18:21:58.718Z,5.63
2023-03-03T18:24:27.486Z,10.98
2023-03-03T18:26:56.303Z,1.30
2023-03-03T18:29:24.606Z,3.65
2023-03-03T18:31:54.132Z,2.05
2023-03-03T18:34:20.540Z,1.75
2023-03-03T18:36:54.551Z,1.95
2023-03-03T18:39:40.968Z,4.10
2023-03-03T18:42:10.182Z,6.35
2023-03-03T18:44:36.636Z,9.68
2023-03-03T18:47:06.048Z,1.30
2023-03-03T18:49:49.429Z,1.77
2023-03-03T18:52:43.138Z,1.40
2023-03-03T18:55:09.531Z,3.22
2023-03-03T18:57:39.287Z,4.05
2023-03-03T19:00:21.596Z,1.17
2023-03-03T19:02:52.509Z,1.63
2023-03-03T19:07:51.318Z,2.65
2023-03-03T19:10:21.396Z,5.38
2023-03-03T19:12:51.797Z,2.70
2023-03-03T19:15:31.048Z,1.13
2023-03-03T19:18:01.314Z,1.58
2023-03-03T19:20:37.803Z,4.55
2023-03-03T19:23:12.320Z,3.13
2023-03-03T19:25:38.853Z,0.70
2023-03-03T19:28:23.841Z,4.03
2023-03-03T19:30:58.088Z,1.85
2023-03-03T19:33:30.954Z,5.10
2023-03-03T19:36:16.177Z,1.63
2023-03-03T19:38:42.609Z,3.30
2023-03-03T19:41:15.004Z,4.40
2023-03-03T19:43:41.358Z,3.08
2023-03-03T19:46:13.839Z,1.85
2023-03-03T19:48:44.457Z,0.73
2023-03-03T19:51:29.615Z,4.30
2023-03-03T19:54:28.467Z,3.80
2023-03-03T19:56:56.255Z,2.42
2023-03-03T19:59:28.738Z,0.63
2023-03-03T20:02:13.553Z,0.82
2023-03-03T20:04:45.873Z,3.28
2023-03-03T20:07:24.121Z,3.08
2023-03-03T20:09:53.287Z,1.52
2023-03-03T20:12:28.883Z,1.20
2023-03-03T20:15:10.239Z,2.05
2023-03-03T20:17:54.860Z,4.00
2023-03-03T20:20:30.623Z,2.30
2023-03-03T20:23:11.892Z,2.40
2023-03-03T20:25:44.596Z,3.03
2023-03-03T20:28:22.991Z,2.85
2023-03-03T20:30:52.482Z,4.03
2023-03-03T20:33:25.929Z,2.55
2023-03-03T20:36:18.608Z,5.45
2023-03-03T20:39:04.199Z,3.58
2023-03-03T20:41:50.902Z,1.73
2023-03-03T20:44:36.272Z,1.65
2023-03-03T20:47:05.741Z,1.25
2023-03-03T20:49:47.507Z,11.63
2023-03-03T20:52:25.834Z,3.58
2023-03-03T20:55:01.126Z,3.00
2023-03-03T20:57:47.134Z,2.83
2023-03-03T21:00:18.392Z,5.97
2023-03-03T21:03:08.130Z,1.70
2023-03-03T21:05:34.742Z,4.45
2023-03-03T21:08:02.428Z,2.47
2023-03-03T21:10:33.876Z,6.00
2023-03-03T21:13:20.242Z,2.83
2023-03-03T21:16:03.145Z,2.65
2023-03-03T21:18:29.821Z,2.00
2023-03-03T21:20:56.260Z,6.05
2023-03-03T21:23:23.061Z,3.40
2023-03-03T21:25:49.628Z,3.08
2023-03-03T21:28:28.313Z,3.10
2023-03-03T21:31:07.197Z,6.38
2023-03-03T21:33:39.754Z,3.13
2023-03-03T21:36:09.106Z,3.40
2023-03-03T21:38:36.300Z,1.10
2023-03-03T21:41:03.313Z,2.35
2023-03-03T21:43:40.247Z,2.28
2023-03-03T21:46:07.134Z,6.70
2023-03-03T21:48:33.641Z,3.53
2023-03-03T21:51:00.122Z,4.30
2023-03-03T21:53:27.278Z,7.22
2023-03-03T21:55:53.767Z,7.05
2023-03-03T21:58:20.185Z,8.13
2023-03-03T22:00:46.751Z,5.70
2023-03-03T22:03:15.240Z,5.70
2023-03-03T22:05:41.747Z,4.80
2023-03-03T22:08:08.150Z,7.32
2023-03-03T22:10:34.759Z,15.15
2023-03-03T22:13:01.138Z,10.27
2023-03-03T22:15:30.408Z,2.85
2023-03-03T22:17:56.955Z,2.35
2023-03-03T22:20:23.336Z,2.35
2023-03-03T22:22:49.830Z,4.90
2023-03-03T22:25:16.334Z,3.33
2023-03-03T22:27:42.813Z,3.95
2023-03-03T22:30:10.107Z,6.65
2023-03-03T22:32:36.526Z,13.02
2023-03-03T22:35:02.987Z,19.70
2023-03-03T22:37:29.373Z,13.80
2023-03-03T22:39:57.798Z,25.45
2023-03-03T22:42:25.050Z,37.85
2023-03-03T22:44:51.460Z,35.72
2023-03-03T22:47:17.950Z,17.60
2023-03-03T22:49:44.367Z,17.10
2023-03-03T22:52:10.787Z,11.00
2023-03-03T22:54:37.367Z,8.95
2023-03-03T22:57:03.776Z,15.88
2023-03-03T22:59:30.368Z,16.98
2023-03-03T23:01:56.831Z,12.65
2023-03-03T23:04:23.299Z,4.05
2023-03-03T23:06:50.166Z,7.78
2023-03-03T23:09:16.582Z,15.43
2023-03-03T23:11:43.045Z,15.43
2023-03-03T23:14:09.451Z,36.30
2023-03-03T23:16:35.861Z,10.80
2023-03-03T23:19:05.417Z,8.68
2023-03-03T23:21:31.919Z,12.10
2023-03-03T23:23:58.334Z,3.33
2023-03-03T23:26:24.933Z,5.45
2023-03-03T23:28:51.385Z,6.60
2023-03-03T23:31:17.941Z,6.40
2023-03-03T23:33:44.420Z,3.45
2023-03-03T23:36:13.236Z,2.78
2023-03-03T23:38:41.366Z,3.97
2023-03-03T23:41:09.373Z,20.17
2023-03-03T23:43:35.855Z,6.53
2023-03-03T23:46:02.271Z,2.85
2023-03-03T23:48:28.662Z,2.70
2023-03-03T23:50:55.132Z,4.60
2023-03-03T23:53:23.446Z,9.55
2023-03-03T23:55:49.830Z,2.95
2023-03-03T23:58:16.209Z,2.90
